Flight Track Log - Related Links

Times and Time Zones

All times are in EDT time to prevent confusion due to time zone crossing. See the ASQ537T flight status page for this flight to view local times or setup timezone preferences in your user account.

Time Position Orientation Groundspeed Altitude Reporting Facility
EDT Latitude Longitude Course Direction KTS MPH feet Rate Location/Type
Tue 02:03:35 PM 29.9772 -95.3514 North 141 162 600  Level Houston Center
Tue 02:04:00 PM 29.9958 -95.3492 North 159 183 1,600 2,023 Climbing Houston Center
Tue 02:05:01 PM 29.9683 -95.3017 124° Southeast 234 269 3,500 1,658 Climbing Houston Center
Tue 02:05:16 PM 29.9561 -95.2903 141° Southeast 238 274 3,700 492 Climbing Houston Center
Tue 02:06:02 PM 29.9072 -95.2536 147° Southeast 268 308 4,000 290 Climbing Houston Center
Tue 02:06:18 PM 29.8950 -95.2431 143° Southeast 257 296 4,000 1,967 Level Houston Center
Tue 02:07:03 PM 29.8397 -95.2042 149° Southeast 269 310 6,000 2,323 Climbing Houston Center
Tue 02:07:20 PM 29.8317 -95.1958 138° Southeast 267 307 6,400 2,328 Climbing Houston Center
Tue 02:08:10 PM 29.7636 -95.1556 153° Southeast 292 336 8,600 1,984 Climbing Houston Center
Tue 02:09:24 PM 29.6758 -95.1439 173° South 305 351 10,500 1,358 Climbing Houston Center
Tue 02:10:27 PM 29.5775 -95.1853 200° South 348 400 11,700 1,440 Climbing Houston Center
Tue 02:11:29 PM 29.4883 -95.2319 204° Southwest 351 404 13,500 1,597 Climbing Houston Center
Tue 02:12:31 PM 29.3992 -95.2767 204° Southwest 350 403 15,000 1,500 Climbing Houston Center
Tue 02:13:33 PM 29.2931 -95.3350 206° Southwest 352 405 16,600 1,306 Climbing Houston Center
Tue 02:14:35 PM 29.2197 -95.4086 221° Southwest 349 402 17,700 823 Climbing Houston Center
Tue 02:15:37 PM 29.1431 -95.4819 220° Southwest 355 409 18,300 823 Climbing Houston Center
Tue 02:16:39 PM 29.0650 -95.5564 220° Southwest 362 417 19,400 1,065 Climbing Houston Center
Tue 02:17:41 PM 28.9867 -95.6325 220° Southwest 367 422 20,500 1,016 Climbing Houston Center
Tue 02:18:43 PM 28.9061 -95.7094 220° Southwest 375 432 21,500 1,200 Climbing Houston Center
Tue 02:19:46 PM 28.8094 -95.8019 220° Southwest 377 434 23,000 1,344 Climbing Houston Center
Tue 02:20:48 PM 28.7303 -95.8778 220° Southwest 374 430 24,300 1,258 Climbing Houston Center
Tue 02:21:50 PM 28.6525 -95.9522 220° Southwest 367 422 25,600 1,258 Climbing Houston Center
Tue 02:22:52 PM 28.5739 -96.0267 220° Southwest 360 414 26,900 1,306 Climbing Houston Center
Tue 02:23:54 PM 28.4992 -96.0992 220° Southwest 354 407 28,300 1,355 Climbing Houston Center
Tue 02:24:56 PM 28.4264 -96.1681 220° Southwest 344 396 29,700 1,452 Climbing Houston Center
Tue 02:25:58 PM 28.3414 -96.2478 220° Southwest 331 381 31,300 1,440 Climbing Houston Center
Tue 02:27:01 PM 28.2714 -96.3136 220° Southwest 328 377 32,700 1,248 Climbing Houston Center
Tue 02:28:03 PM 28.2028 -96.3794 220° Southwest 324 373 33,900 629 Climbing Houston Center
Tue 02:29:05 PM 28.1311 -96.4461 219° Southwest 330 380 34,000 48 Climbing Houston Center
Tue 02:30:07 PM 28.0550 -96.5178 220° Southwest 349 402 34,000  Level Houston Center
Tue 02:31:09 PM 27.9767 -96.5922 220° Southwest 361 415 34,000  Level Houston Center
Tue 02:32:11 PM 27.8828 -96.6808 220° Southwest 364 419 34,000  Level Houston Center
Tue 02:33:13 PM 27.8031 -96.7558 220° Southwest 367 422 34,000  Level Houston Center
Tue 02:34:15 PM 27.7256 -96.8292 220° Southwest 367 422 34,000  Level Houston Center
Tue 02:35:18 PM 27.6472 -96.9022 220° Southwest 366 421 34,000  Level Houston Center
Tue 02:36:20 PM 27.5711 -96.9733 220° Southwest 362 417 34,000 -97 Level Houston Center
Tue 02:37:22 PM 27.4956 -97.0433 219° Southwest 357 411 33,800 -1,210 Descending Houston Center
Tue 02:38:24 PM 27.4014 -97.1303 219° Southwest 359 413 31,500 -2,081 Descending Houston Center
Tue 02:39:26 PM 27.3200 -97.2050 219° Southwest 366 421 29,500 -1,935 Descending Houston Center
Tue 02:40:28 PM 27.2372 -97.2800 219° Southwest 374 430 27,500 -1,935 Descending Houston Center
Tue 02:41:30 PM 27.1519 -97.3575 219° Southwest 382 440 25,500 -2,112 Descending Houston Center
Tue 02:42:33 PM 27.0492 -97.4481 218° Southwest 415 478 23,100 -2,276 Descending Houston Center
Tue 02:42:57 PM 27.0139 -97.4814 220° Southwest 406 467 22,200 -2,129 Descending Houston Center
Tue 02:43:35 PM 26.9631 -97.5278 219° Southwest 409 471 20,900 -2,149 Descending Houston Center
Tue 02:44:04 PM 26.9178 -97.5672 218° Southwest 386 444 19,800 -2,129 Descending Houston Center
Tue 02:44:37 PM 26.8750 -97.6078 220° Southwest 383 441 18,700 -2,000 Descending Houston Center
Tue 02:45:04 PM 26.8375 -97.6414 219° Southwest 380 437 17,800 -1,452 Descending Houston Center
Tue 02:45:39 PM 26.7972 -97.6858 225° Southwest 376 433 17,200 -1,770 Descending Houston Center
Tue 02:46:05 PM 26.7644 -97.7239 226° Southwest 367 422 16,000 -2,419 Descending Houston Center
Tue 02:46:41 PM 26.7250 -97.7700 226° Southwest 337 388 14,700 -1,869 Descending Houston Center
Tue 02:47:06 PM 26.7011 -97.8003 229° Southwest 341 392 14,100 -1,452 Descending Houston Center
Tue 02:47:43 PM 26.6633 -97.8425 225° Southwest 325 374 13,200 -1,574 Descending Houston Center
Tue 02:48:07 PM 26.6392 -97.8694 225° Southwest 326 375 12,500 -1,839 Descending Houston Center
Tue 02:48:45 PM 26.5981 -97.9167 226° Southwest 315 362 11,300 -1,770 Descending Houston Center
Tue 02:49:08 PM 26.5772 -97.9408 226° Southwest 305 351 10,700 -1,429 Descending Houston Center
Tue 02:49:48 PM 26.5442 -97.9789 226° Southwest 288 331 9,800 -1,475 Descending Houston Center
Tue 02:50:09 PM 26.5247 -98.0017 226° Southwest 275 316 9,200 -1,645 Descending Houston Center
Tue 02:50:50 PM 26.4906 -98.0400 225° Southwest 263 303 8,100 -1,200 Descending Houston Center
Tue 02:51:09 PM 26.4758 -98.0569 226° Southwest 260 299 8,000 -968 Descending Houston Center
Tue 02:51:52 PM 26.4411 -98.0967 226° Southwest 257 296 7,100 -1,475 Descending Houston Center
Tue 02:52:10 PM 26.4253 -98.1150 226° Southwest 257 296 6,500 -1,747 Descending Houston Center
Tue 02:53:11 PM 26.3747 -98.1731 226° Southwest 262 302 4,800 -1,698 Descending Houston Center
Tue 02:53:56 PM 26.3358 -98.2175 226° Southwest 261 300 3,500 -1,672 Descending Houston Center
Tue 02:54:12 PM 26.3200 -98.2339 223° Southwest 260 299 3,100 -1,355 Descending Houston Center
Tue 02:54:58 PM 26.2836 -98.2767 227° Southwest 252 290 2,100 -984 Descending Houston Center
Tue 02:55:13 PM 26.2731 -98.2889 226° Southwest 250 288 2,100 -387 Level Houston Center
Tue 02:56:00 PM 26.2411 -98.2967 192° South 186 214 1,700 -661 Descending Houston Center
Tue 02:57:02 PM 26.2081 -98.2708 145° Southeast 139 160 900 -774 Descending Houston Center
Tue 02:59:00 PM 26.1758 -98.2386 214° Southwest  Level Estimated

Login

Don't have an account? Register now (free) for customized features, flight alerts, and more!